Terminal Aerodrome Forecast
Issued by NWS

Home | Current Version | Previous Version | Text Only | Print | Product List | Glossary On
Versions: 1 2 3 4 5 6 7 8 9 10 11 12 13 14 15 16 17 18 19 20 21 22 23 24 25 26
000
FTUS41 KBTV 030538
TAFMSS
TAF
KMSS 030538Z 0306/0406 28012KT P6SM VCSH OVC026
     FM030900 28011G17KT P6SM OVC022
     FM031300 29010KT P6SM VCSH OVC025
     FM031900 29010G16KT P6SM OVC022
     FM032200 28008KT P6SM OVC025=

USA.gov is the U.S. government's official web portal to all federal, state and local government web resources and services.